sensor_id;sensor_type;location;lat;lon;timestamp;P1;durP1;ratioP1;P2;durP2;ratioP2
12591;SDS011;6361;52.120;5.108;2023-03-03T00:00:47;14.13;;;9.40;;
12591;SDS011;6361;52.120;5.108;2023-03-03T00:03:14;15.02;;;9.55;;
12591;SDS011;6361;52.120;5.108;2023-03-03T00:05:42;13.65;;;9.50;;
12591;SDS011;6361;52.120;5.108;2023-03-03T00:08:07;14.35;;;9.27;;
12591;SDS011;6361;52.120;5.108;2023-03-03T00:10:33;14.25;;;9.57;;
12591;SDS011;6361;52.120;5.108;2023-03-03T00:12:59;14.82;;;9.35;;
12591;SDS011;6361;52.120;5.108;2023-03-03T00:15:25;13.25;;;8.93;;
12591;SDS011;6361;52.120;5.108;2023-03-03T00:17:51;13.75;;;9.10;;
12591;SDS011;6361;52.120;5.108;2023-03-03T00:22:51;15.57;;;9.20;;
12591;SDS011;6361;52.120;5.108;2023-03-03T00:27:53;14.73;;;9.23;;
12591;SDS011;6361;52.120;5.108;2023-03-03T00:30:25;13.77;;;8.68;;
12591;SDS011;6361;52.120;5.108;2023-03-03T00:32:51;15.32;;;9.00;;
12591;SDS011;6361;52.120;5.108;2023-03-03T00:35:20;15.18;;;9.75;;
12591;SDS011;6361;52.120;5.108;2023-03-03T00:37:50;13.63;;;9.00;;
12591;SDS011;6361;52.120;5.108;2023-03-03T00:40:35;15.02;;;9.57;;
12591;SDS011;6361;52.120;5.108;2023-03-03T00:43:11;15.02;;;9.32;;
12591;SDS011;6361;52.120;5.108;2023-03-03T00:50:53;13.88;;;8.88;;
12591;SDS011;6361;52.120;5.108;2023-03-03T00:53:23;15.20;;;9.65;;
12591;SDS011;6361;52.120;5.108;2023-03-03T00:55:51;15.82;;;9.38;;
12591;SDS011;6361;52.120;5.108;2023-03-03T00:58:17;18.15;;;9.95;;
12591;SDS011;6361;52.120;5.108;2023-03-03T01:00:45;16.38;;;10.02;;
12591;SDS011;6361;52.120;5.108;2023-03-03T01:03:13;17.17;;;10.55;;
12591;SDS011;6361;52.120;5.108;2023-03-03T01:05:40;20.33;;;10.55;;
12591;SDS011;6361;52.120;5.108;2023-03-03T01:08:05;14.43;;;9.45;;
12591;SDS011;6361;52.120;5.108;2023-03-03T01:10:32;15.75;;;9.57;;
12591;SDS011;6361;52.120;5.108;2023-03-03T01:12:59;14.93;;;9.40;;
12591;SDS011;6361;52.120;5.108;2023-03-03T01:15:25;17.20;;;10.43;;
12591;SDS011;6361;52.120;5.108;2023-03-03T01:17:50;15.88;;;10.02;;
12591;SDS011;6361;52.120;5.108;2023-03-03T01:20:16;16.92;;;10.43;;
12591;SDS011;6361;52.120;5.108;2023-03-03T01:22:42;18.23;;;10.23;;
12591;SDS011;6361;52.120;5.108;2023-03-03T01:25:07;16.77;;;10.73;;
12591;SDS011;6361;52.120;5.108;2023-03-03T01:27:34;19.65;;;10.93;;
12591;SDS011;6361;52.120;5.108;2023-03-03T01:29:59;17.02;;;10.00;;
12591;SDS011;6361;52.120;5.108;2023-03-03T01:32:25;19.50;;;11.82;;
12591;SDS011;6361;52.120;5.108;2023-03-03T01:34:51;21.25;;;11.52;;
12591;SDS011;6361;52.120;5.108;2023-03-03T01:37:17;18.85;;;10.02;;
12591;SDS011;6361;52.120;5.108;2023-03-03T01:39:46;20.85;;;12.52;;
12591;SDS011;6361;52.120;5.108;2023-03-03T01:42:15;23.60;;;12.85;;
12591;SDS011;6361;52.120;5.108;2023-03-03T01:44:40;22.60;;;12.85;;
12591;SDS011;6361;52.120;5.108;2023-03-03T01:47:14;23.05;;;13.40;;
12591;SDS011;6361;52.120;5.108;2023-03-03T01:52:15;22.92;;;13.52;;
12591;SDS011;6361;52.120;5.108;2023-03-03T01:54:47;21.08;;;13.07;;
12591;SDS011;6361;52.120;5.108;2023-03-03T01:57:17;22.52;;;12.80;;
12591;SDS011;6361;52.120;5.108;2023-03-03T01:59:46;21.33;;;12.85;;
12591;SDS011;6361;52.120;5.108;2023-03-03T02:02:13;21.80;;;13.30;;
12591;SDS011;6361;52.120;5.108;2023-03-03T02:04:39;21.42;;;13.02;;
12591;SDS011;6361;52.120;5.108;2023-03-03T02:07:05;21.85;;;13.10;;
12591;SDS011;6361;52.120;5.108;2023-03-03T02:12:35;22.45;;;12.70;;
12591;SDS011;6361;52.120;5.108;2023-03-03T02:15:28;22.95;;;12.82;;
12591;SDS011;6361;52.120;5.108;2023-03-03T02:18:02;22.85;;;13.30;;
12591;SDS011;6361;52.120;5.108;2023-03-03T02:28:35;24.15;;;13.55;;
12591;SDS011;6361;52.120;5.108;2023-03-03T02:31:02;23.52;;;13.02;;
12591;SDS011;6361;52.120;5.108;2023-03-03T02:33:27;21.52;;;13.05;;
12591;SDS011;6361;52.120;5.108;2023-03-03T02:35:53;23.80;;;13.15;;
12591;SDS011;6361;52.120;5.108;2023-03-03T02:43:56;20.33;;;12.48;;
12591;SDS011;6361;52.120;5.108;2023-03-03T02:46:24;20.77;;;11.60;;
12591;SDS011;6361;52.120;5.108;2023-03-03T02:48:50;21.73;;;12.20;;
12591;SDS011;6361;52.120;5.108;2023-03-03T02:51:16;20.63;;;12.07;;
12591;SDS011;6361;52.120;5.108;2023-03-03T02:53:41;22.83;;;12.88;;
12591;SDS011;6361;52.120;5.108;2023-03-03T02:56:06;19.55;;;11.15;;
12591;SDS011;6361;52.120;5.108;2023-03-03T02:58:33;22.00;;;12.75;;
12591;SDS011;6361;52.120;5.108;2023-03-03T03:00:59;21.33;;;12.15;;
12591;SDS011;6361;52.120;5.108;2023-03-03T03:03:25;20.92;;;12.65;;
12591;SDS011;6361;52.120;5.108;2023-03-03T03:05:50;27.52;;;13.27;;
12591;SDS011;6361;52.120;5.108;2023-03-03T03:08:16;23.77;;;13.68;;
12591;SDS011;6361;52.120;5.108;2023-03-03T03:10:41;25.98;;;13.35;;
12591;SDS011;6361;52.120;5.108;2023-03-03T03:13:06;23.70;;;12.63;;
12591;SDS011;6361;52.120;5.108;2023-03-03T03:15:33;29.63;;;13.93;;
12591;SDS011;6361;52.120;5.108;2023-03-03T03:17:59;24.15;;;13.77;;
12591;SDS011;6361;52.120;5.108;2023-03-03T03:20:25;26.55;;;13.85;;
12591;SDS011;6361;52.120;5.108;2023-03-03T03:22:50;27.05;;;14.10;;
12591;SDS011;6361;52.120;5.108;2023-03-03T03:25:15;27.27;;;13.68;;
12591;SDS011;6361;52.120;5.108;2023-03-03T03:27:41;28.63;;;15.23;;
12591;SDS011;6361;52.120;5.108;2023-03-03T03:30:06;27.15;;;14.82;;
12591;SDS011;6361;52.120;5.108;2023-03-03T03:32:32;27.45;;;14.40;;
12591;SDS011;6361;52.120;5.108;2023-03-03T03:34:58;29.13;;;14.88;;
12591;SDS011;6361;52.120;5.108;2023-03-03T03:37:23;31.25;;;15.50;;
12591;SDS011;6361;52.120;5.108;2023-03-03T03:39:48;28.73;;;15.20;;
12591;SDS011;6361;52.120;5.108;2023-03-03T03:42:14;28.60;;;15.27;;
12591;SDS011;6361;52.120;5.108;2023-03-03T03:44:39;28.55;;;15.00;;
12591;SDS011;6361;52.120;5.108;2023-03-03T03:47:05;29.05;;;15.63;;
12591;SDS011;6361;52.120;5.108;2023-03-03T03:49:30;27.00;;;14.52;;
12591;SDS011;6361;52.120;5.108;2023-03-03T03:51:56;24.30;;;13.20;;
12591;SDS011;6361;52.120;5.108;2023-03-03T03:54:21;26.67;;;14.07;;
12591;SDS011;6361;52.120;5.108;2023-03-03T03:56:47;29.33;;;14.50;;
12591;SDS011;6361;52.120;5.108;2023-03-03T03:59:12;30.33;;;14.55;;
12591;SDS011;6361;52.120;5.108;2023-03-03T04:01:38;25.88;;;13.95;;
12591;SDS011;6361;52.120;5.108;2023-03-03T04:04:03;28.42;;;13.63;;
12591;SDS011;6361;52.120;5.108;2023-03-03T04:06:29;25.88;;;13.52;;
12591;SDS011;6361;52.120;5.108;2023-03-03T04:08:54;22.73;;;12.18;;
12591;SDS011;6361;52.120;5.108;2023-03-03T04:11:20;28.83;;;14.15;;
12591;SDS011;6361;52.120;5.108;2023-03-03T04:13:45;25.60;;;13.25;;
12591;SDS011;6361;52.120;5.108;2023-03-03T04:16:11;27.73;;;13.63;;
12591;SDS011;6361;52.120;5.108;2023-03-03T04:18:36;28.08;;;13.82;;
12591;SDS011;6361;52.120;5.108;2023-03-03T04:21:02;26.17;;;13.43;;
12591;SDS011;6361;52.120;5.108;2023-03-03T04:23:27;28.25;;;14.93;;
12591;SDS011;6361;52.120;5.108;2023-03-03T04:25:52;25.65;;;13.88;;
12591;SDS011;6361;52.120;5.108;2023-03-03T04:28:18;30.35;;;15.35;;
12591;SDS011;6361;52.120;5.108;2023-03-03T04:30:43;26.65;;;13.35;;
12591;SDS011;6361;52.120;5.108;2023-03-03T04:33:09;28.48;;;14.55;;
12591;SDS011;6361;52.120;5.108;2023-03-03T04:35:34;32.58;;;14.93;;
12591;SDS011;6361;52.120;5.108;2023-03-03T04:37:59;24.88;;;13.40;;
12591;SDS011;6361;52.120;5.108;2023-03-03T04:40:25;28.92;;;14.50;;
12591;SDS011;6361;52.120;5.108;2023-03-03T04:42:50;32.47;;;15.85;;
12591;SDS011;6361;52.120;5.108;2023-03-03T04:45:16;32.15;;;15.40;;
12591;SDS011;6361;52.120;5.108;2023-03-03T04:47:42;29.17;;;15.77;;
12591;SDS011;6361;52.120;5.108;2023-03-03T04:50:08;31.35;;;15.38;;
12591;SDS011;6361;52.120;5.108;2023-03-03T04:52:34;30.92;;;15.38;;
12591;SDS011;6361;52.120;5.108;2023-03-03T04:54:59;35.83;;;17.35;;
12591;SDS011;6361;52.120;5.108;2023-03-03T04:57:24;38.53;;;16.63;;
12591;SDS011;6361;52.120;5.108;2023-03-03T04:59:50;36.30;;;16.58;;
12591;SDS011;6361;52.120;5.108;2023-03-03T05:02:15;35.72;;;16.63;;
12591;SDS011;6361;52.120;5.108;2023-03-03T05:04:41;31.20;;;15.27;;
12591;SDS011;6361;52.120;5.108;2023-03-03T05:07:07;31.33;;;16.27;;
12591;SDS011;6361;52.120;5.108;2023-03-03T05:09:32;31.13;;;15.70;;
12591;SDS011;6361;52.120;5.108;2023-03-03T05:11:58;37.20;;;16.33;;
12591;SDS011;6361;52.120;5.108;2023-03-03T05:14:23;34.72;;;16.67;;
12591;SDS011;6361;52.120;5.108;2023-03-03T05:16:48;35.65;;;17.92;;
12591;SDS011;6361;52.120;5.108;2023-03-03T05:19:14;33.00;;;15.85;;
12591;SDS011;6361;52.120;5.108;2023-03-03T05:21:39;29.52;;;15.35;;
12591;SDS011;6361;52.120;5.108;2023-03-03T05:24:07;31.77;;;16.02;;
12591;SDS011;6361;52.120;5.108;2023-03-03T05:26:35;29.55;;;15.02;;
12591;SDS011;6361;52.120;5.108;2023-03-03T05:29:01;38.42;;;16.13;;
12591;SDS011;6361;52.120;5.108;2023-03-03T05:31:26;34.88;;;15.02;;
12591;SDS011;6361;52.120;5.108;2023-03-03T05:33:52;34.67;;;15.52;;
12591;SDS011;6361;52.120;5.108;2023-03-03T05:36:18;36.67;;;16.10;;
12591;SDS011;6361;52.120;5.108;2023-03-03T05:38:43;33.65;;;15.18;;
12591;SDS011;6361;52.120;5.108;2023-03-03T05:41:09;29.55;;;14.65;;
12591;SDS011;6361;52.120;5.108;2023-03-03T05:43:34;28.65;;;14.43;;
12591;SDS011;6361;52.120;5.108;2023-03-03T05:46:00;37.92;;;14.00;;
12591;SDS011;6361;52.120;5.108;2023-03-03T05:48:25;27.52;;;12.82;;
12591;SDS011;6361;52.120;5.108;2023-03-03T05:50:51;22.23;;;11.70;;
12591;SDS011;6361;52.120;5.108;2023-03-03T05:53:16;25.50;;;12.20;;
12591;SDS011;6361;52.120;5.108;2023-03-03T05:55:42;29.77;;;14.63;;
12591;SDS011;6361;52.120;5.108;2023-03-03T05:58:09;27.55;;;13.20;;
12591;SDS011;6361;52.120;5.108;2023-03-03T06:00:36;28.73;;;14.32;;
12591;SDS011;6361;52.120;5.108;2023-03-03T06:03:02;30.40;;;14.20;;
12591;SDS011;6361;52.120;5.108;2023-03-03T06:05:30;29.40;;;14.60;;
12591;SDS011;6361;52.120;5.108;2023-03-03T06:07:55;34.40;;;14.63;;
12591;SDS011;6361;52.120;5.108;2023-03-03T06:10:20;28.45;;;14.50;;
12591;SDS011;6361;52.120;5.108;2023-03-03T06:12:46;28.33;;;14.25;;
12591;SDS011;6361;52.120;5.108;2023-03-03T06:15:11;33.25;;;15.48;;
12591;SDS011;6361;52.120;5.108;2023-03-03T06:17:37;39.45;;;16.08;;
12591;SDS011;6361;52.120;5.108;2023-03-03T06:20:02;29.40;;;14.27;;
12591;SDS011;6361;52.120;5.108;2023-03-03T06:22:29;29.15;;;14.45;;
12591;SDS011;6361;52.120;5.108;2023-03-03T06:24:54;31.35;;;13.85;;
12591;SDS011;6361;52.120;5.108;2023-03-03T06:27:19;33.45;;;15.13;;
12591;SDS011;6361;52.120;5.108;2023-03-03T06:29:45;29.83;;;14.15;;
12591;SDS011;6361;52.120;5.108;2023-03-03T06:32:11;31.08;;;14.98;;
12591;SDS011;6361;52.120;5.108;2023-03-03T06:34:37;28.70;;;14.23;;
12591;SDS011;6361;52.120;5.108;2023-03-03T06:37:02;32.50;;;14.57;;
12591;SDS011;6361;52.120;5.108;2023-03-03T06:39:28;27.10;;;14.07;;
12591;SDS011;6361;52.120;5.108;2023-03-03T06:41:53;28.75;;;14.13;;
12591;SDS011;6361;52.120;5.108;2023-03-03T06:44:18;32.70;;;14.63;;
12591;SDS011;6361;52.120;5.108;2023-03-03T06:46:44;26.27;;;13.40;;
12591;SDS011;6361;52.120;5.108;2023-03-03T06:49:09;26.77;;;13.43;;
12591;SDS011;6361;52.120;5.108;2023-03-03T06:51:35;29.65;;;14.30;;
12591;SDS011;6361;52.120;5.108;2023-03-03T06:54:10;27.25;;;13.75;;
12591;SDS011;6361;52.120;5.108;2023-03-03T06:56:37;29.98;;;15.00;;
12591;SDS011;6361;52.120;5.108;2023-03-03T06:59:05;29.38;;;14.88;;
12591;SDS011;6361;52.120;5.108;2023-03-03T07:01:45;29.77;;;14.98;;
12591;SDS011;6361;52.120;5.108;2023-03-03T07:06:43;25.83;;;13.57;;
12591;SDS011;6361;52.120;5.108;2023-03-03T07:09:14;24.75;;;12.85;;
12591;SDS011;6361;52.120;5.108;2023-03-03T07:11:45;26.20;;;12.90;;
12591;SDS011;6361;52.120;5.108;2023-03-03T07:14:13;22.38;;;11.90;;
12591;SDS011;6361;52.120;5.108;2023-03-03T07:16:40;24.13;;;11.68;;
12591;SDS011;6361;52.120;5.108;2023-03-03T07:19:14;27.15;;;13.60;;
12591;SDS011;6361;52.120;5.108;2023-03-03T07:21:43;30.17;;;14.45;;
12591;SDS011;6361;52.120;5.108;2023-03-03T07:24:24;33.22;;;14.30;;
12591;SDS011;6361;52.120;5.108;2023-03-03T07:26:52;41.47;;;20.20;;
12591;SDS011;6361;52.120;5.108;2023-03-03T07:29:26;34.28;;;18.08;;
12591;SDS011;6361;52.120;5.108;2023-03-03T07:31:55;34.70;;;14.93;;
12591;SDS011;6361;52.120;5.108;2023-03-03T07:37:05;29.77;;;14.82;;
12591;SDS011;6361;52.120;5.108;2023-03-03T07:39:36;29.10;;;13.75;;
12591;SDS011;6361;52.120;5.108;2023-03-03T07:44:33;28.20;;;14.02;;
12591;SDS011;6361;52.120;5.108;2023-03-03T07:47:03;32.33;;;13.73;;
12591;SDS011;6361;52.120;5.108;2023-03-03T07:49:39;27.33;;;13.13;;
12591;SDS011;6361;52.120;5.108;2023-03-03T07:54:51;24.42;;;12.65;;
12591;SDS011;6361;52.120;5.108;2023-03-03T07:57:24;23.77;;;13.00;;
12591;SDS011;6361;52.120;5.108;2023-03-03T08:02:32;28.23;;;13.90;;
12591;SDS011;6361;52.120;5.108;2023-03-03T08:13:56;19.77;;;10.30;;
12591;SDS011;6361;52.120;5.108;2023-03-03T08:18:38;17.88;;;9.23;;
12591;SDS011;6361;52.120;5.108;2023-03-03T08:21:14;17.80;;;9.10;;
12591;SDS011;6361;52.120;5.108;2023-03-03T08:23:41;16.50;;;8.57;;
12591;SDS011;6361;52.120;5.108;2023-03-03T08:26:06;18.05;;;8.95;;
12591;SDS011;6361;52.120;5.108;2023-03-03T08:28:32;17.88;;;9.23;;
12591;SDS011;6361;52.120;5.108;2023-03-03T08:30:58;18.75;;;9.48;;
12591;SDS011;6361;52.120;5.108;2023-03-03T08:33:23;17.85;;;9.88;;
12591;SDS011;6361;52.120;5.108;2023-03-03T08:35:49;18.20;;;9.43;;
12591;SDS011;6361;52.120;5.108;2023-03-03T08:38:16;18.35;;;8.77;;
12591;SDS011;6361;52.120;5.108;2023-03-03T08:40:43;15.10;;;8.63;;
12591;SDS011;6361;52.120;5.108;2023-03-03T08:43:08;16.02;;;8.38;;
12591;SDS011;6361;52.120;5.108;2023-03-03T08:45:34;19.90;;;9.90;;
12591;SDS011;6361;52.120;5.108;2023-03-03T08:48:01;17.30;;;8.80;;
12591;SDS011;6361;52.120;5.108;2023-03-03T08:50:27;18.33;;;9.20;;
12591;SDS011;6361;52.120;5.108;2023-03-03T08:52:53;13.85;;;8.52;;
12591;SDS011;6361;52.120;5.108;2023-03-03T08:55:19;15.55;;;8.52;;
12591;SDS011;6361;52.120;5.108;2023-03-03T08:57:45;14.10;;;8.68;;
12591;SDS011;6361;52.120;5.108;2023-03-03T09:00:11;15.82;;;8.27;;
12591;SDS011;6361;52.120;5.108;2023-03-03T09:02:38;15.15;;;8.40;;
12591;SDS011;6361;52.120;5.108;2023-03-03T09:05:04;15.02;;;8.18;;
12591;SDS011;6361;52.120;5.108;2023-03-03T09:07:30;16.02;;;8.57;;
12591;SDS011;6361;52.120;5.108;2023-03-03T09:09:55;17.88;;;9.15;;
12591;SDS011;6361;52.120;5.108;2023-03-03T09:12:27;15.25;;;8.65;;
12591;SDS011;6361;52.120;5.108;2023-03-03T09:14:59;18.35;;;8.80;;
12591;SDS011;6361;52.120;5.108;2023-03-03T09:17:33;17.23;;;9.35;;
12591;SDS011;6361;52.120;5.108;2023-03-03T09:20:01;16.75;;;8.90;;
12591;SDS011;6361;52.120;5.108;2023-03-03T09:22:41;17.35;;;8.82;;
12591;SDS011;6361;52.120;5.108;2023-03-03T09:27:47;14.95;;;8.13;;
12591;SDS011;6361;52.120;5.108;2023-03-03T09:32:50;14.80;;;8.30;;
12591;SDS011;6361;52.120;5.108;2023-03-03T09:35:25;13.38;;;7.68;;
12591;SDS011;6361;52.120;5.108;2023-03-03T09:37:57;15.10;;;7.93;;
12591;SDS011;6361;52.120;5.108;2023-03-03T09:40:31;18.85;;;8.18;;
12591;SDS011;6361;52.120;5.108;2023-03-03T09:57:11;16.35;;;8.20;;
12591;SDS011;6361;52.120;5.108;2023-03-03T10:26:19;12.30;;;6.20;;
12591;SDS011;6361;52.120;5.108;2023-03-03T10:32:17;16.83;;;9.80;;
12591;SDS011;6361;52.120;5.108;2023-03-03T10:38:01;8.82;;;5.45;;
12591;SDS011;6361;52.120;5.108;2023-03-03T10:40:50;11.75;;;5.57;;
12591;SDS011;6361;52.120;5.108;2023-03-03T10:51:41;9.55;;;4.40;;
12591;SDS011;6361;52.120;5.108;2023-03-03T11:05:48;7.75;;;4.32;;
12591;SDS011;6361;52.120;5.108;2023-03-03T11:08:16;11.93;;;6.18;;
12591;SDS011;6361;52.120;5.108;2023-03-03T11:13:14;5.97;;;3.50;;
12591;SDS011;6361;52.120;5.108;2023-03-03T11:18:41;10.25;;;3.88;;
12591;SDS011;6361;52.120;5.108;2023-03-03T11:27:13;6.15;;;3.35;;
12591;SDS011;6361;52.120;5.108;2023-03-03T11:32:32;7.70;;;3.70;;
12591;SDS011;6361;52.120;5.108;2023-03-03T11:45:58;6.93;;;3.22;;
12591;SDS011;6361;52.120;5.108;2023-03-03T11:51:19;5.90;;;3.72;;
12591;SDS011;6361;52.120;5.108;2023-03-03T11:53:58;6.63;;;3.72;;
12591;SDS011;6361;52.120;5.108;2023-03-03T11:56:38;6.53;;;3.20;;
12591;SDS011;6361;52.120;5.108;2023-03-03T12:01:59;5.95;;;2.58;;
12591;SDS011;6361;52.120;5.108;2023-03-03T12:04:33;5.43;;;2.17;;
12591;SDS011;6361;52.120;5.108;2023-03-03T12:07:21;9.30;;;2.83;;
12591;SDS011;6361;52.120;5.108;2023-03-03T12:12:58;5.22;;;1.80;;
12591;SDS011;6361;52.120;5.108;2023-03-03T12:21:14;4.25;;;1.50;;
12591;SDS011;6361;52.120;5.108;2023-03-03T12:23:51;6.65;;;1.95;;
12591;SDS011;6361;52.120;5.108;2023-03-03T12:29:03;4.07;;;2.20;;
12591;SDS011;6361;52.120;5.108;2023-03-03T12:39:49;2.53;;;1.20;;
12591;SDS011;6361;52.120;5.108;2023-03-03T12:42:20;6.38;;;1.83;;
12591;SDS011;6361;52.120;5.108;2023-03-03T12:44:53;2.75;;;1.60;;
12591;SDS011;6361;52.120;5.108;2023-03-03T12:47:28;3.30;;;1.70;;
12591;SDS011;6361;52.120;5.108;2023-03-03T13:04:15;6.38;;;1.92;;
12591;SDS011;6361;52.120;5.108;2023-03-03T13:23:05;2.13;;;1.25;;
12591;SDS011;6361;52.120;5.108;2023-03-03T13:25:52;6.65;;;2.13;;
12591;SDS011;6361;52.120;5.108;2023-03-03T13:31:14;5.38;;;1.30;;
12591;SDS011;6361;52.120;5.108;2023-03-03T13:33:46;2.67;;;1.20;;
12591;SDS011;6361;52.120;5.108;2023-03-03T13:36:18;3.60;;;1.02;;
12591;SDS011;6361;52.120;5.108;2023-03-03T13:38:47;3.67;;;1.10;;
12591;SDS011;6361;52.120;5.108;2023-03-03T13:41:18;5.15;;;1.23;;
12591;SDS011;6361;52.120;5.108;2023-03-03T13:46:42;3.55;;;1.45;;
12591;SDS011;6361;52.120;5.108;2023-03-03T13:52:31;3.60;;;1.50;;
12591;SDS011;6361;52.120;5.108;2023-03-03T14:16:15;9.90;;;2.38;;
12591;SDS011;6361;52.120;5.108;2023-03-03T14:18:54;4.10;;;1.20;;
12591;SDS011;6361;52.120;5.108;2023-03-03T14:21:26;5.25;;;1.20;;
12591;SDS011;6361;52.120;5.108;2023-03-03T14:24:03;2.55;;;1.02;;
12591;SDS011;6361;52.120;5.108;2023-03-03T14:26:44;2.38;;;1.10;;
12591;SDS011;6361;52.120;5.108;2023-03-03T14:29:34;4.45;;;1.20;;
12591;SDS011;6361;52.120;5.108;2023-03-03T14:31:59;4.10;;;1.30;;
12591;SDS011;6361;52.120;5.108;2023-03-03T14:34:34;2.33;;;1.40;;
12591;SDS011;6361;52.120;5.108;2023-03-03T14:37:18;5.35;;;3.15;;
12591;SDS011;6361;52.120;5.108;2023-03-03T14:39:46;2.38;;;1.30;;
12591;SDS011;6361;52.120;5.108;2023-03-03T14:45:38;2.55;;;1.25;;
12591;SDS011;6361;52.120;5.108;2023-03-03T14:48:24;1.75;;;1.20;;
12591;SDS011;6361;52.120;5.108;2023-03-03T14:50:52;3.33;;;1.33;;
12591;SDS011;6361;52.120;5.108;2023-03-03T14:53:38;4.35;;;1.73;;
12591;SDS011;6361;52.120;5.108;2023-03-03T14:56:55;4.95;;;1.40;;
12591;SDS011;6361;52.120;5.108;2023-03-03T15:01:36;4.57;;;2.47;;
12591;SDS011;6361;52.120;5.108;2023-03-03T15:04:03;4.75;;;1.80;;
12591;SDS011;6361;52.120;5.108;2023-03-03T15:11:50;6.72;;;3.05;;
12591;SDS011;6361;52.120;5.108;2023-03-03T15:14:17;5.63;;;1.67;;
12591;SDS011;6361;52.120;5.108;2023-03-03T15:16:44;4.72;;;1.70;;
12591;SDS011;6361;52.120;5.108;2023-03-03T15:25:08;11.15;;;3.83;;
12591;SDS011;6361;52.120;5.108;2023-03-03T15:27:49;3.35;;;1.30;;
12591;SDS011;6361;52.120;5.108;2023-03-03T15:30:25;6.82;;;2.20;;
12591;SDS011;6361;52.120;5.108;2023-03-03T15:36:24;3.25;;;1.60;;
12591;SDS011;6361;52.120;5.108;2023-03-03T15:44:20;4.38;;;1.58;;
12591;SDS011;6361;52.120;5.108;2023-03-03T16:03:35;5.65;;;1.20;;
12591;SDS011;6361;52.120;5.108;2023-03-03T16:06:09;3.45;;;1.20;;
12591;SDS011;6361;52.120;5.108;2023-03-03T16:11:23;6.40;;;1.50;;
12591;SDS011;6361;52.120;5.108;2023-03-03T16:13:58;6.65;;;1.42;;
12591;SDS011;6361;52.120;5.108;2023-03-03T16:19:19;5.60;;;1.75;;
12591;SDS011;6361;52.120;5.108;2023-03-03T16:27:36;5.00;;;1.40;;
12591;SDS011;6361;52.120;5.108;2023-03-03T16:35:53;5.75;;;1.45;;
12591;SDS011;6361;52.120;5.108;2023-03-03T16:40:54;6.18;;;1.50;;
12591;SDS011;6361;52.120;5.108;2023-03-03T16:43:24;6.40;;;1.70;;
12591;SDS011;6361;52.120;5.108;2023-03-03T16:45:57;6.45;;;1.55;;
12591;SDS011;6361;52.120;5.108;2023-03-03T16:54:07;7.38;;;1.55;;
12591;SDS011;6361;52.120;5.108;2023-03-03T16:56:37;4.97;;;1.40;;
12591;SDS011;6361;52.120;5.108;2023-03-03T16:59:15;6.28;;;1.55;;
12591;SDS011;6361;52.120;5.108;2023-03-03T17:07:12;6.93;;;2.40;;
12591;SDS011;6361;52.120;5.108;2023-03-03T17:24:22;4.43;;;1.80;;
12591;SDS011;6361;52.120;5.108;2023-03-03T17:27:06;5.03;;;1.83;;
12591;SDS011;6361;52.120;5.108;2023-03-03T17:37:32;6.55;;;1.60;;
12591;SDS011;6361;52.120;5.108;2023-03-03T17:45:28;11.02;;;2.25;;
12591;SDS011;6361;52.120;5.108;2023-03-03T17:50:50;7.85;;;1.90;;
12591;SDS011;6361;52.120;5.108;2023-03-03T17:56:48;9.52;;;2.17;;
12591;SDS011;6361;52.120;5.108;2023-03-03T17:59:24;11.25;;;2.30;;
12591;SDS011;6361;52.120;5.108;2023-03-03T18:09:48;11.32;;;2.40;;
12591;SDS011;6361;52.120;5.108;2023-03-03T18:12:24;15.82;;;2.70;;
12591;SDS011;6361;52.120;5.108;2023-03-03T18:20:58;17.98;;;3.80;;
12591;SDS011;6361;52.120;5.108;2023-03-03T18:36:52;22.70;;;3.73;;
12591;SDS011;6361;52.120;5.108;2023-03-03T18:39:36;15.05;;;3.20;;
12591;SDS011;6361;52.120;5.108;2023-03-03T18:44:39;18.40;;;3.13;;
12591;SDS011;6361;52.120;5.108;2023-03-03T18:47:05;19.15;;;2.90;;
12591;SDS011;6361;52.120;5.108;2023-03-03T18:49:46;11.85;;;2.88;;
12591;SDS011;6361;52.120;5.108;2023-03-03T18:52:29;14.60;;;3.00;;
12591;SDS011;6361;52.120;5.108;2023-03-03T18:55:39;24.00;;;3.17;;
12591;SDS011;6361;52.120;5.108;2023-03-03T19:00:56;17.63;;;3.58;;
12591;SDS011;6361;52.120;5.108;2023-03-03T19:05:51;14.63;;;3.17;;
12591;SDS011;6361;52.120;5.108;2023-03-03T19:08:23;16.23;;;3.03;;
12591;SDS011;6361;52.120;5.108;2023-03-03T19:15:57;15.70;;;3.05;;
12591;SDS011;6361;52.120;5.108;2023-03-03T19:18:24;18.77;;;3.45;;
12591;SDS011;6361;52.120;5.108;2023-03-03T19:23:21;19.98;;;2.60;;
12591;SDS011;6361;52.120;5.108;2023-03-03T19:29:01;17.30;;;2.72;;
12591;SDS011;6361;52.120;5.108;2023-03-03T19:36:59;16.85;;;2.70;;
12591;SDS011;6361;52.120;5.108;2023-03-03T20:04:15;18.05;;;2.90;;
12591;SDS011;6361;52.120;5.108;2023-03-03T20:25:50;15.55;;;3.13;;
12591;SDS011;6361;52.120;5.108;2023-03-03T20:34:10;15.43;;;2.83;;
12591;SDS011;6361;52.120;5.108;2023-03-03T20:39:18;25.15;;;2.95;;
12591;SDS011;6361;52.120;5.108;2023-03-03T20:53:37;13.88;;;2.53;;
12591;SDS011;6361;52.120;5.108;2023-03-03T21:00:03;21.13;;;2.88;;
12591;SDS011;6361;52.120;5.108;2023-03-03T21:05:07;12.88;;;2.50;;
12591;SDS011;6361;52.120;5.108;2023-03-03T21:07:37;20.27;;;3.28;;
12591;SDS011;6361;52.120;5.108;2023-03-03T21:10:15;18.05;;;3.42;;
12591;SDS011;6361;52.120;5.108;2023-03-03T21:12:48;16.55;;;2.97;;
12591;SDS011;6361;52.120;5.108;2023-03-03T21:15:23;15.30;;;3.00;;
12591;SDS011;6361;52.120;5.108;2023-03-03T21:17:50;24.58;;;3.33;;
12591;SDS011;6361;52.120;5.108;2023-03-03T21:22:48;21.35;;;3.25;;
12591;SDS011;6361;52.120;5.108;2023-03-03T21:38:58;19.10;;;2.85;;
12591;SDS011;6361;52.120;5.108;2023-03-03T21:41:26;19.40;;;3.65;;
12591;SDS011;6361;52.120;5.108;2023-03-03T21:43:51;19.45;;;3.67;;
12591;SDS011;6361;52.120;5.108;2023-03-03T21:46:21;17.25;;;3.08;;
12591;SDS011;6361;52.120;5.108;2023-03-03T21:48:48;14.93;;;2.97;;
12591;SDS011;6361;52.120;5.108;2023-03-03T21:51:14;27.70;;;3.40;;
12591;SDS011;6361;52.120;5.108;2023-03-03T21:53:44;16.25;;;3.17;;
12591;SDS011;6361;52.120;5.108;2023-03-03T21:56:10;17.00;;;3.15;;
12591;SDS011;6361;52.120;5.108;2023-03-03T21:58:37;18.63;;;2.78;;
12591;SDS011;6361;52.120;5.108;2023-03-03T22:01:04;14.95;;;2.60;;
12591;SDS011;6361;52.120;5.108;2023-03-03T22:03:30;19.27;;;3.28;;
12591;SDS011;6361;52.120;5.108;2023-03-03T22:05:56;21.08;;;3.22;;
12591;SDS011;6361;52.120;5.108;2023-03-03T22:08:21;21.92;;;3.42;;
12591;SDS011;6361;52.120;5.108;2023-03-03T22:10:48;16.98;;;3.25;;
12591;SDS011;6361;52.120;5.108;2023-03-03T22:13:17;21.92;;;3.75;;
12591;SDS011;6361;52.120;5.108;2023-03-03T22:15:44;16.05;;;2.88;;
12591;SDS011;6361;52.120;5.108;2023-03-03T22:18:10;23.73;;;3.60;;
12591;SDS011;6361;52.120;5.108;2023-03-03T22:20:36;20.30;;;3.10;;
12591;SDS011;6361;52.120;5.108;2023-03-03T22:23:01;17.98;;;3.10;;
12591;SDS011;6361;52.120;5.108;2023-03-03T22:25:26;18.95;;;3.00;;
12591;SDS011;6361;52.120;5.108;2023-03-03T22:27:52;22.02;;;3.10;;
12591;SDS011;6361;52.120;5.108;2023-03-03T22:30:17;15.88;;;2.70;;
12591;SDS011;6361;52.120;5.108;2023-03-03T22:32:42;23.20;;;3.47;;
12591;SDS011;6361;52.120;5.108;2023-03-03T22:35:08;15.00;;;2.53;;
12591;SDS011;6361;52.120;5.108;2023-03-03T22:37:33;17.83;;;2.50;;
12591;SDS011;6361;52.120;5.108;2023-03-03T22:39:59;19.30;;;2.60;;
12591;SDS011;6361;52.120;5.108;2023-03-03T22:42:25;15.85;;;2.35;;
12591;SDS011;6361;52.120;5.108;2023-03-03T22:44:50;20.35;;;2.90;;
12591;SDS011;6361;52.120;5.108;2023-03-03T22:47:15;20.35;;;2.78;;
12591;SDS011;6361;52.120;5.108;2023-03-03T22:49:41;15.40;;;1.92;;
12591;SDS011;6361;52.120;5.108;2023-03-03T22:52:06;18.38;;;2.10;;
12591;SDS011;6361;52.120;5.108;2023-03-03T22:54:31;14.18;;;2.45;;
12591;SDS011;6361;52.120;5.108;2023-03-03T22:56:57;12.82;;;1.90;;
12591;SDS011;6361;52.120;5.108;2023-03-03T22:59:22;17.63;;;2.50;;